createdAt,value
2019-04-06T00:00:26.173Z,97363.75
2019-04-06T00:02:52.188Z,97353.38
2019-04-06T00:05:18.217Z,97357.83
2019-04-06T00:07:44.314Z,97358.91
2019-04-06T00:10:11.092Z,97355.25
2019-04-06T00:12:37.224Z,97354.55
2019-04-06T00:15:05.376Z,97351.91
2019-04-06T00:17:31.481Z,97354.41
2019-04-06T00:19:57.526Z,97348.30
2019-04-06T00:22:23.547Z,97350.44
2019-04-06T00:24:49.681Z,97357.93
2019-04-06T00:27:15.907Z,97322.42
2019-04-06T00:29:41.920Z,97361.98
2019-04-06T00:32:07.944Z,97367.59
2019-04-06T00:34:34.170Z,97363.35
2019-04-06T00:37:00.300Z,97354.44
2019-04-06T00:39:26.420Z,97355.63
2019-04-06T00:41:52.549Z,97357.88
2019-04-06T00:44:18.873Z,97357.11
2019-04-06T00:46:44.898Z,97358.30
2019-04-06T00:49:11.022Z,97360.34
2019-04-06T00:51:37.147Z,97356.67
2019-04-06T00:54:03.309Z,97355.68
2019-04-06T00:56:29.479Z,97357.54
2019-04-06T00:58:55.674Z,97357.54
2019-04-06T01:01:21.760Z,97356.24
2019-04-06T01:03:47.773Z,97374.54
2019-04-06T01:06:13.794Z,97360.00
2019-04-06T01:08:39.919Z,97358.47
2019-04-06T01:11:06.044Z,97356.39
2019-04-06T01:13:32.067Z,97354.81
2019-04-06T01:15:58.241Z,97358.98
2019-04-06T01:18:24.317Z,97358.31
2019-04-06T01:20:50.340Z,97354.09
2019-04-06T01:23:16.366Z,97356.17
2019-04-06T01:25:42.393Z,97358.53
2019-04-06T01:28:08.615Z,97354.20
2019-04-06T01:30:34.708Z,97358.13
2019-04-06T01:33:00.762Z,97360.03
2019-04-06T01:35:26.785Z,97360.09
2019-04-06T01:37:53.017Z,97361.73
2019-04-06T01:40:19.036Z,97350.82
2019-04-06T01:42:45.061Z,97352.56
2019-04-06T01:45:11.182Z,97354.77
2019-04-06T01:47:37.203Z,97349.94
2019-04-06T01:50:04.047Z,97354.84
2019-04-06T01:52:30.169Z,97354.22
2019-04-06T01:54:56.295Z,97357.55
2019-04-06T01:57:22.322Z,97359.56
2019-04-06T01:59:48.246Z,97352.30
2019-04-06T02:02:14.172Z,97341.94
2019-04-06T02:04:40.224Z,97333.14
2019-04-06T02:07:06.472Z,97335.88
2019-04-06T02:09:32.556Z,97336.09
2019-04-06T02:11:58.965Z,97340.49
2019-04-06T02:14:25.157Z,97347.55
2019-04-06T02:16:51.186Z,97342.33
2019-04-06T02:19:17.246Z,97340.95
2019-04-06T02:21:43.259Z,97341.08
2019-04-06T02:24:09.283Z,97336.62
2019-04-06T02:26:35.304Z,97330.46
2019-04-06T02:29:01.331Z,97338.83
2019-04-06T02:31:27.537Z,97340.96
2019-04-06T02:33:53.815Z,97337.12
2019-04-06T02:36:19.827Z,97341.13
2019-04-06T02:38:45.852Z,97348.88
2019-04-06T02:41:12.020Z,97350.30
2019-04-06T02:43:38.375Z,97353.30
2019-04-06T02:46:04.718Z,97352.94
2019-04-06T02:48:31.153Z,97352.62
2019-04-06T02:50:57.173Z,97352.76
2019-04-06T02:53:23.373Z,97354.33
2019-04-06T02:55:49.524Z,97354.06
2019-04-06T02:58:15.649Z,97348.23
2019-04-06T03:00:42.115Z,97354.22
2019-04-06T03:03:08.540Z,97352.38
2019-04-06T03:05:34.534Z,97363.37
2019-04-06T03:08:00.780Z,97362.45
2019-04-06T03:10:26.888Z,97359.27
2019-04-06T03:12:52.951Z,97360.77
2019-04-06T03:15:18.931Z,97353.59
2019-04-06T03:17:44.957Z,97359.20
2019-04-06T03:20:11.237Z,97358.91
2019-04-06T03:22:37.204Z,97347.38
2019-04-06T03:25:05.379Z,97349.90
2019-04-06T03:27:31.412Z,97355.47
2019-04-06T03:29:59.128Z,97346.34
2019-04-06T03:32:25.487Z,97355.48
2019-04-06T03:34:52.284Z,97355.84
2019-04-06T03:37:18.367Z,97351.70
2019-04-06T03:39:44.485Z,97358.13
2019-04-06T03:42:11.328Z,97354.64
2019-04-06T03:44:37.775Z,97353.59
2019-04-06T03:47:03.891Z,97353.02
2019-04-06T03:49:29.904Z,97355.62
2019-04-06T03:51:56.145Z,97356.55
2019-04-06T03:54:22.165Z,97356.28
2019-04-06T03:56:48.252Z,97360.58
2019-04-06T03:59:14.409Z,97374.64
2019-04-06T04:01:40.341Z,97361.91
2019-04-06T04:04:06.638Z,97367.70
2019-04-06T04:06:32.677Z,97366.11
2019-04-06T04:08:58.788Z,97361.06
2019-04-06T04:11:24.971Z,97356.41
2019-04-06T04:13:50.952Z,97353.86
2019-04-06T04:16:16.977Z,97347.87
2019-04-06T04:18:43.003Z,97355.03
2019-04-06T04:21:09.042Z,97353.47
2019-04-06T04:23:35.157Z,97353.05
2019-04-06T04:26:01.371Z,97355.73
2019-04-06T04:28:27.421Z,97355.67
2019-04-06T04:30:53.628Z,97362.98
2019-04-06T04:33:19.648Z,97366.41
2019-04-06T04:35:45.914Z,97369.69
2019-04-06T04:38:12.222Z,97366.46
2019-04-06T04:40:38.219Z,97372.87
2019-04-06T04:43:04.245Z,97374.40
2019-04-06T04:45:30.275Z,97375.15
2019-04-06T04:47:56.262Z,97378.59
2019-04-06T04:50:22.444Z,97384.53
2019-04-06T04:52:48.643Z,97379.13
2019-04-06T04:55:14.747Z,97387.80
2019-04-06T04:57:42.000Z,97386.44
2019-04-06T05:00:09.166Z,97390.75
2019-04-06T05:02:35.191Z,97386.61
2019-04-06T05:05:01.334Z,97381.55
2019-04-06T05:07:27.271Z,97384.03
2019-04-06T05:09:53.363Z,97388.72
2019-04-06T05:12:19.483Z,97384.96
2019-04-06T05:14:56.872Z,97379.81
2019-04-06T05:17:23.111Z,97383.06
2019-04-06T05:19:49.141Z,97382.66
2019-04-06T05:22:15.184Z,97386.70
2019-04-06T05:24:41.377Z,97385.13
2019-04-06T05:27:07.396Z,97384.03
2019-04-06T05:29:33.700Z,97389.17
2019-04-06T05:31:59.833Z,97391.84
2019-04-06T05:34:25.776Z,97388.02
2019-04-06T05:36:51.753Z,97396.46
2019-04-06T05:39:17.712Z,97398.00
2019-04-06T05:41:43.709Z,97397.18
2019-04-06T05:44:11.873Z,97403.20
2019-04-06T05:46:39.161Z,97409.01
2019-04-06T05:49:05.375Z,97408.58
2019-04-06T05:51:31.456Z,97403.10
2019-04-06T05:53:57.844Z,97407.84
2019-04-06T05:56:23.967Z,97411.46
2019-04-06T05:58:50.029Z,97407.20
2019-04-06T06:01:16.014Z,97407.65
2019-04-06T06:03:42.161Z,97403.66
2019-04-06T06:06:08.226Z,97414.63
2019-04-06T06:08:34.399Z,97415.77
2019-04-06T06:11:00.750Z,97421.70
2019-04-06T06:13:26.843Z,97427.27
2019-04-06T06:15:52.773Z,97427.59
2019-04-06T06:18:26.463Z,97426.16
2019-04-06T06:20:48.395Z,97429.22
2019-04-06T06:23:14.568Z,97431.64
2019-04-06T06:25:40.853Z,97423.71
2019-04-06T06:28:14.231Z,97426.45
2019-04-06T06:30:35.040Z,97429.45
2019-04-06T06:33:01.166Z,97430.77
2019-04-06T06:35:27.433Z,97432.09
2019-04-06T06:37:53.669Z,97437.65
2019-04-06T06:40:19.746Z,97430.72
2019-04-06T06:42:45.716Z,97435.36
2019-04-06T06:45:11.845Z,97433.81
2019-04-06T06:47:37.925Z,97442.63
2019-04-06T06:50:05.542Z,97438.03
2019-04-06T06:52:31.603Z,97448.21
2019-04-06T06:54:57.623Z,97480.07
2019-04-06T06:57:23.953Z,97439.59
2019-04-06T06:59:49.935Z,97441.36
2019-04-06T07:02:16.203Z,97442.25
2019-04-06T07:04:42.232Z,97443.02
2019-04-06T07:07:08.318Z,97436.14
2019-04-06T07:09:34.372Z,97439.55
2019-04-06T07:12:00.350Z,97440.22
2019-04-06T07:14:26.417Z,97437.41
2019-04-06T07:16:52.442Z,97435.78
2019-04-06T07:19:18.669Z,97432.05
2019-04-06T07:21:44.718Z,97430.84
2019-04-06T07:24:10.818Z,97429.75
2019-04-06T07:26:37.144Z,97429.00
2019-04-06T07:29:03.372Z,97427.28
2019-04-06T07:31:29.810Z,97425.53
2019-04-06T07:33:55.930Z,97423.67
2019-04-06T07:36:22.156Z,97416.05
2019-04-06T07:38:48.177Z,97428.95
2019-04-06T07:41:14.203Z,97421.36
2019-04-06T07:43:40.429Z,97420.51
2019-04-06T07:46:06.450Z,97425.44
2019-04-06T07:48:32.587Z,97425.47
2019-04-06T07:50:58.623Z,97426.83
2019-04-06T07:53:24.677Z,97430.44
2019-04-06T07:55:51.794Z,97432.00
2019-04-06T07:58:17.867Z,97426.59
2019-04-06T08:00:44.536Z,97426.44
2019-04-06T08:03:10.873Z,97422.77
2019-04-06T08:05:36.883Z,97426.37
2019-04-06T08:08:03.111Z,97420.62
2019-04-06T08:10:29.338Z,97417.66
2019-04-06T08:12:55.382Z,97419.58
2019-04-06T08:15:21.487Z,97384.69
2019-04-06T08:17:47.513Z,97414.66
2019-04-06T08:20:13.887Z,97413.53
2019-04-06T08:22:39.963Z,97419.18
2019-04-06T08:25:06.452Z,97420.25
2019-04-06T08:27:32.401Z,97421.55
2019-04-06T08:29:58.545Z,97417.91
2019-04-06T08:32:24.575Z,97415.92
2019-04-06T08:34:50.595Z,97384.94
2019-04-06T08:37:16.647Z,97414.22
2019-04-06T08:39:42.645Z,97419.52
2019-04-06T08:42:08.777Z,97409.73
2019-04-06T08:44:35.101Z,97414.23
2019-04-06T08:47:01.269Z,97410.05
2019-04-06T08:49:27.645Z,97411.77
2019-04-06T08:51:53.778Z,97413.11
2019-04-06T08:54:19.841Z,97407.39
2019-04-06T08:56:45.845Z,97408.22
2019-04-06T08:59:13.309Z,97403.12
2019-04-06T09:01:40.103Z,97410.71
2019-04-06T09:04:06.239Z,97415.16
2019-04-06T09:06:32.366Z,97414.94
2019-04-06T09:08:58.308Z,97403.81
2019-04-06T09:11:24.312Z,97413.19
2019-04-06T09:13:50.333Z,97412.80
2019-04-06T09:16:16.568Z,97419.28
2019-04-06T09:18:42.786Z,97408.30
2019-04-06T09:21:09.023Z,97405.26
2019-04-06T09:23:35.034Z,97410.60
2019-04-06T09:26:01.162Z,97403.97
2019-04-06T09:28:27.704Z,97399.61
2019-04-06T09:30:54.179Z,97394.41
2019-04-06T09:33:20.783Z,97395.63
2019-04-06T09:35:46.992Z,97387.63
2019-04-06T09:38:13.084Z,97393.47
2019-04-06T09:40:39.144Z,97390.80
2019-04-06T09:43:05.160Z,97389.05
2019-04-06T09:45:31.200Z,97376.34
2019-04-06T09:47:57.209Z,97386.36
2019-04-06T09:50:23.479Z,97388.05
2019-04-06T09:52:49.559Z,97388.23
2019-04-06T09:55:15.491Z,97384.84
2019-04-06T09:57:41.711Z,97382.55
2019-04-06T10:00:09.315Z,97379.94
2019-04-06T10:02:35.699Z,97380.94
2019-04-06T10:05:03.571Z,97388.16
2019-04-06T10:07:29.731Z,97384.23
2019-04-06T10:09:55.719Z,97386.95
2019-04-06T10:12:21.736Z,97381.70
2019-04-06T10:14:47.867Z,97383.98
2019-04-06T10:17:13.882Z,97375.41
2019-04-06T10:19:39.907Z,97387.94
2019-04-06T10:22:06.188Z,97385.40
2019-04-06T10:24:32.467Z,97384.73
2019-04-06T10:26:58.695Z,97382.87
2019-04-06T10:29:24.993Z,97377.66
2019-04-06T10:31:51.381Z,97377.72
2019-04-06T10:34:17.490Z,97376.69
2019-04-06T10:36:43.502Z,97382.88
2019-04-06T10:39:09.626Z,97382.59
2019-04-06T10:41:35.646Z,97379.64
2019-04-06T10:44:01.666Z,97379.00
2019-04-06T10:46:27.693Z,97382.23
2019-04-06T10:48:53.730Z,97378.17
2019-04-06T10:51:19.995Z,97379.96
2019-04-06T10:53:46.115Z,97378.53
2019-04-06T10:56:12.375Z,97384.03
2019-04-06T10:58:38.518Z,97385.71
2019-04-06T11:01:04.721Z,97386.25
2019-04-06T11:03:30.977Z,97384.11
2019-04-06T11:05:57.205Z,97385.71
2019-04-06T11:08:23.580Z,97378.26
2019-04-06T11:10:49.655Z,97384.20
2019-04-06T11:13:15.733Z,97377.06
2019-04-06T11:15:41.752Z,97372.64
2019-04-06T11:18:07.881Z,97368.53
2019-04-06T11:20:34.364Z,97370.57
2019-04-06T11:23:00.744Z,97373.94
2019-04-06T11:25:26.802Z,97362.59
2019-04-06T11:27:52.841Z,97360.67
2019-04-06T11:30:19.168Z,97359.89
2019-04-06T11:32:45.189Z,97353.59
2019-04-06T11:35:11.315Z,97351.88
2019-04-06T11:37:37.342Z,97353.27
2019-04-06T11:40:05.260Z,97346.11
2019-04-06T11:42:31.534Z,97350.13
2019-04-06T11:44:57.606Z,97338.82
2019-04-06T11:47:23.612Z,97341.36
2019-04-06T11:49:49.905Z,97335.70
2019-04-06T11:52:15.862Z,97325.13
2019-04-06T11:54:41.954Z,97334.25
2019-04-06T11:57:07.977Z,97325.03
2019-04-06T11:59:34.001Z,97332.75
2019-04-06T12:02:00.334Z,97327.14
2019-04-06T12:04:26.355Z,97326.11
2019-04-06T12:06:52.381Z,97321.80
2019-04-06T12:09:18.398Z,97313.72
2019-04-06T12:11:44.455Z,97326.30
2019-04-06T12:14:10.547Z,97326.47
2019-04-06T12:16:36.929Z,97318.56
2019-04-06T12:19:03.308Z,97317.44
2019-04-06T12:21:29.452Z,97314.21
2019-04-06T12:23:55.945Z,97312.81
2019-04-06T12:26:22.004Z,97307.81
2019-04-06T12:28:48.216Z,97306.34
2019-04-06T12:31:14.406Z,97296.08
2019-04-06T12:33:40.502Z,97283.09
2019-04-06T12:36:06.494Z,97292.28
2019-04-06T12:38:32.635Z,97304.52
2019-04-06T12:40:59.150Z,97300.38
2019-04-06T12:43:25.131Z,97286.42
2019-04-06T12:45:51.442Z,97277.38
2019-04-06T12:48:17.731Z,97286.19
2019-04-06T12:50:43.882Z,97252.98
2019-04-06T12:53:09.879Z,97282.36
2019-04-06T12:55:36.007Z,97279.95
2019-04-06T12:58:02.236Z,97276.69
2019-04-06T13:00:28.258Z,97283.36
2019-04-06T13:02:54.279Z,97277.33
2019-04-06T13:05:20.404Z,97284.09
2019-04-06T13:07:46.681Z,97279.27
2019-04-06T13:10:12.960Z,97272.04
2019-04-06T13:12:39.083Z,97276.02
2019-04-06T13:15:05.518Z,97264.59
2019-04-06T13:17:31.746Z,97266.42
2019-04-06T13:19:57.873Z,97270.80
2019-04-06T13:22:23.998Z,97265.27
2019-04-06T13:24:50.161Z,97252.55
2019-04-06T13:27:16.350Z,97257.72
2019-04-06T13:29:42.585Z,97255.39
2019-04-06T13:32:08.599Z,97258.76
2019-04-06T13:34:34.622Z,97251.68
2019-04-06T13:37:00.931Z,97254.88
2019-04-06T13:39:27.326Z,97251.78
2019-04-06T13:41:54.638Z,97250.32
2019-04-06T13:44:20.656Z,97250.67
2019-04-06T13:46:46.783Z,97248.67
2019-04-06T13:49:12.907Z,97242.87
2019-04-06T13:51:39.033Z,97240.29
2019-04-06T13:54:05.576Z,97250.30
2019-04-06T13:56:33.023Z,97245.12
2019-04-06T13:58:59.251Z,97241.44
2019-04-06T14:01:25.376Z,97241.95
2019-04-06T14:03:51.527Z,97243.38
2019-04-06T14:06:18.129Z,97243.71
2019-04-06T14:08:44.572Z,97237.45
2019-04-06T14:11:30.739Z,97236.49
2019-04-06T14:13:58.544Z,97236.41
2019-04-06T14:16:24.654Z,97245.23
2019-04-06T14:18:54.485Z,97237.04
2019-04-06T14:21:23.132Z,97240.40
2019-04-06T14:23:50.537Z,97230.60
2019-04-06T14:26:20.039Z,97241.64
2019-04-06T14:28:47.163Z,97246.86
2019-04-06T14:31:25.811Z,97240.33
2019-04-06T14:33:41.992Z,97236.63
2019-04-06T14:36:09.609Z,97237.92
2019-04-06T14:38:36.063Z,97232.08
2019-04-06T14:41:02.500Z,97239.59
2019-04-06T14:43:28.448Z,97241.67
2019-04-06T14:45:54.545Z,97231.34
2019-04-06T14:48:20.564Z,97229.42
2019-04-06T14:50:46.803Z,97236.02
2019-04-06T14:53:12.917Z,97227.22
2019-04-06T14:55:39.044Z,97228.92
2019-04-06T14:58:05.411Z,97234.25
2019-04-06T15:00:32.011Z,97235.29
2019-04-06T15:02:58.275Z,97227.83
2019-04-06T15:05:24.464Z,97232.32
2019-04-06T15:07:50.613Z,97235.22
2019-04-06T15:10:16.610Z,97227.91
2019-04-06T15:12:42.683Z,97226.33
2019-04-06T15:15:09.452Z,97218.48
2019-04-06T15:17:35.527Z,97223.36
2019-04-06T15:20:03.570Z,97226.91
2019-04-06T15:22:29.719Z,97232.00
2019-04-06T15:24:55.724Z,97218.94
2019-04-06T15:27:21.859Z,97232.51
2019-04-06T15:29:47.898Z,97232.13
2019-04-06T15:32:14.202Z,97221.05
2019-04-06T15:34:40.589Z,97234.75
2019-04-06T15:37:07.476Z,97221.38
2019-04-06T15:39:34.006Z,97218.43
2019-04-06T15:42:01.422Z,97221.20
2019-04-06T15:44:27.689Z,97222.03
2019-04-06T15:46:53.739Z,97226.39
2019-04-06T15:49:19.835Z,97215.41
2019-04-06T15:51:45.860Z,97222.47
2019-04-06T15:54:12.131Z,97221.00
2019-04-06T15:56:38.313Z,97220.73
2019-04-06T15:59:04.435Z,97222.62
2019-04-06T16:01:30.567Z,97212.67
2019-04-06T16:03:58.884Z,97216.87
2019-04-06T16:06:25.065Z,97213.97
2019-04-06T16:08:51.937Z,97218.50
2019-04-06T16:11:18.137Z,97222.06
2019-04-06T16:13:44.491Z,97211.86
2019-04-06T16:16:10.452Z,97221.45
2019-04-06T16:18:37.123Z,97217.05
2019-04-06T16:21:03.300Z,97220.59
2019-04-06T16:23:29.379Z,97222.09
2019-04-06T16:25:55.501Z,97224.63
2019-04-06T16:28:22.113Z,97224.92
2019-04-06T16:30:50.460Z,97218.95
2019-04-06T16:33:16.241Z,97214.60
2019-04-06T16:35:42.254Z,97220.55
2019-04-06T16:38:08.762Z,97223.31
2019-04-06T16:40:35.023Z,97232.27
2019-04-06T16:43:01.148Z,97234.11
2019-04-06T16:45:27.513Z,97229.05
2019-04-06T16:47:53.961Z,97233.39
2019-04-06T16:50:20.132Z,97231.02
2019-04-06T16:52:47.279Z,97229.78
2019-04-06T16:55:13.519Z,97229.38
2019-04-06T16:57:40.028Z,97231.19
2019-04-06T17:00:18.572Z,97233.66
2019-04-06T17:02:36.229Z,97233.45
2019-04-06T17:05:04.052Z,97237.70
2019-04-06T17:07:30.088Z,97237.44
2019-04-06T17:09:56.342Z,97237.34
2019-04-06T17:12:22.651Z,97237.52
2019-04-06T17:14:49.884Z,97236.00
2019-04-06T17:17:16.345Z,97229.67
2019-04-06T17:19:42.601Z,97236.69
2019-04-06T17:22:08.693Z,97228.76
2019-04-06T17:24:35.086Z,97230.70
2019-04-06T17:27:01.435Z,97229.98
2019-04-06T17:29:27.558Z,97228.36
2019-04-06T17:31:53.725Z,97228.20
2019-04-06T17:34:19.948Z,97219.65
2019-04-06T17:36:46.489Z,97227.63
2019-04-06T17:39:13.908Z,97227.13
2019-04-06T17:41:40.146Z,97230.98
2019-04-06T17:44:06.251Z,97223.41
2019-04-06T17:46:32.480Z,97226.48
2019-04-06T17:48:58.711Z,97226.78
2019-04-06T17:51:24.682Z,97225.14
2019-04-06T17:53:51.319Z,97224.16
2019-04-06T17:56:18.125Z,97222.67
2019-04-06T17:58:44.333Z,97221.51
2019-04-06T18:01:10.821Z,97225.48
2019-04-06T18:03:38.017Z,97229.88
2019-04-06T18:08:43.155Z,97224.04
2019-04-06T18:11:09.192Z,97226.05
2019-04-06T18:13:35.682Z,97226.27
2019-04-06T18:16:02.058Z,97232.60
2019-04-06T18:18:28.193Z,97228.45
2019-04-06T18:20:54.234Z,97232.33
2019-04-06T18:23:20.231Z,97204.23
2019-04-06T18:25:46.253Z,97228.86
2019-04-06T18:28:12.483Z,97230.79
2019-04-06T18:30:38.710Z,97233.45
2019-04-06T18:33:04.685Z,97239.23
2019-04-06T18:35:31.481Z,97226.22
2019-04-06T18:37:57.799Z,97230.45
2019-04-06T18:40:24.132Z,97240.61
2019-04-06T18:42:50.751Z,97203.42
2019-04-06T18:45:16.893Z,97234.87
2019-04-06T18:47:42.913Z,97235.66
2019-04-06T18:50:09.344Z,97231.30
2019-04-06T18:52:35.371Z,97230.07
2019-04-06T18:55:02.110Z,97235.42
2019-04-06T18:57:28.132Z,97233.43
2019-04-06T18:59:55.311Z,97237.73
2019-04-06T19:02:21.417Z,97234.20
2019-04-06T19:04:47.649Z,97234.20
2019-04-06T19:07:14.197Z,97235.71
2019-04-06T19:09:40.657Z,97242.06
2019-04-06T19:12:06.845Z,97236.97
2019-04-06T19:14:32.966Z,97234.08
2019-04-06T19:16:59.205Z,97240.55
2019-04-06T19:19:26.063Z,97232.13
2019-04-06T19:21:52.456Z,97232.13
2019-04-06T19:24:18.484Z,97239.81
2019-04-06T19:26:44.513Z,97235.22
2019-04-06T19:29:10.906Z,97238.37
2019-04-06T19:31:37.667Z,97227.71
2019-04-06T19:34:04.167Z,97237.62
2019-04-06T19:36:30.279Z,97079.64
2019-04-06T19:38:56.354Z,97227.93
2019-04-06T19:41:22.478Z,97233.27
2019-04-06T19:43:48.937Z,97237.28
2019-04-06T19:46:15.071Z,97230.14
2019-04-06T19:48:41.269Z,97225.44
2019-04-06T19:51:07.387Z,97223.88
2019-04-06T19:53:33.407Z,97225.61
2019-04-06T19:56:00.051Z,97232.70
2019-04-06T19:58:26.070Z,97233.00
2019-04-06T20:00:52.040Z,97227.89
2019-04-06T20:03:18.117Z,97231.25
2019-04-06T20:05:44.139Z,97230.84
2019-04-06T20:08:10.159Z,97223.09
2019-04-06T20:10:36.221Z,97226.36
2019-04-06T20:13:05.037Z,97226.50
2019-04-06T20:15:31.201Z,97232.91
2019-04-06T20:17:57.134Z,97222.91
2019-04-06T20:20:23.454Z,97217.86
2019-04-06T20:22:50.500Z,97217.30
2019-04-06T20:25:16.622Z,97217.66
2019-04-06T20:27:43.465Z,97216.78
2019-04-06T20:30:10.043Z,97218.63
2019-04-06T20:32:36.224Z,97206.73
2019-04-06T20:35:05.304Z,97209.70
2019-04-06T20:37:31.894Z,97208.33
2019-04-06T20:39:58.085Z,97211.27
2019-04-06T20:42:24.732Z,97203.25
2019-04-06T20:44:50.955Z,97222.38
2019-04-06T20:47:17.719Z,97208.59
2019-04-06T20:49:45.254Z,97210.41
2019-04-06T20:52:11.792Z,97219.50
2019-04-06T20:54:38.425Z,97215.47
2019-04-06T20:57:04.746Z,97205.47
2019-04-06T20:59:30.972Z,97212.86
2019-04-06T21:01:56.996Z,97213.34
2019-04-06T21:04:23.643Z,97221.03
2019-04-06T21:06:50.496Z,97222.10
2019-04-06T21:09:16.705Z,97220.25
2019-04-06T21:11:42.832Z,97224.41
2019-04-06T21:14:09.055Z,97222.34
2019-04-06T21:16:35.179Z,97234.17
2019-04-06T21:19:01.309Z,97224.97
2019-04-06T21:21:27.236Z,97232.64
2019-04-06T21:23:53.999Z,97230.86
2019-04-06T21:26:20.304Z,97234.44
2019-04-06T21:28:46.582Z,97234.02
2019-04-06T21:31:13.056Z,97233.78
2019-04-06T21:33:41.140Z,97231.28
2019-04-06T21:36:07.261Z,97240.69
2019-04-06T21:38:33.484Z,97236.66
2019-04-06T21:40:59.506Z,97241.83
2019-04-06T21:43:25.595Z,97236.16
2019-04-06T21:45:52.108Z,97236.89
2019-04-06T21:48:18.140Z,97234.66
2019-04-06T21:50:44.207Z,97235.58
2019-04-06T21:53:10.592Z,97243.47
2019-04-06T21:55:36.885Z,97243.84
2019-04-06T21:58:03.098Z,97249.81
2019-04-06T22:00:30.072Z,97246.27
2019-04-06T22:02:56.370Z,97245.32
2019-04-06T22:05:22.394Z,97256.84
2019-04-06T22:07:52.021Z,97260.56
2019-04-06T22:10:16.282Z,97257.60
2019-04-06T22:12:42.303Z,97260.63
2019-04-06T22:15:08.791Z,97256.82
2019-04-06T22:17:35.173Z,97257.03
2019-04-06T22:20:02.995Z,97257.45
2019-04-06T22:22:29.375Z,97252.70
2019-04-06T22:24:55.402Z,97254.42
2019-04-06T22:27:21.513Z,97256.30
2019-04-06T22:29:47.538Z,97261.74
2019-04-06T22:32:13.992Z,97260.98
2019-04-06T22:34:41.699Z,97265.48
2019-04-06T22:37:08.557Z,97268.30
2019-04-06T22:39:35.244Z,97265.44
2019-04-06T22:42:02.131Z,97264.95
2019-04-06T22:44:28.272Z,97267.16
2019-04-06T22:46:54.248Z,97262.48
2019-04-06T22:49:20.176Z,97260.56
2019-04-06T22:51:46.168Z,97261.03
2019-04-06T22:54:12.802Z,97261.09
2019-04-06T22:56:38.880Z,97258.07
2019-04-06T22:59:04.823Z,97257.33
2019-04-06T23:01:30.995Z,97260.56
2019-04-06T23:03:57.189Z,97259.67
2019-04-06T23:06:23.431Z,97264.83
2019-04-06T23:08:49.540Z,97267.05
2019-04-06T23:11:15.586Z,97272.72
2019-04-06T23:13:41.573Z,97270.63
2019-04-06T23:16:07.599Z,97268.74
2019-04-06T23:18:33.724Z,97272.95
2019-04-06T23:20:59.744Z,97263.95
2019-04-06T23:23:25.871Z,97268.97
2019-04-06T23:25:52.907Z,97271.75
2019-04-06T23:28:19.096Z,97268.08
2019-04-06T23:30:45.318Z,97273.77
2019-04-06T23:33:12.022Z,97278.03
2019-04-06T23:35:38.107Z,97246.48
2019-04-06T23:38:04.257Z,97274.05
2019-04-06T23:40:30.560Z,97276.23
2019-04-06T23:42:57.327Z,97283.66
2019-04-06T23:45:23.537Z,97278.13
2019-04-06T23:47:50.041Z,97284.31
2019-04-06T23:50:16.911Z,97286.94
2019-04-06T23:52:43.418Z,97276.94
2019-04-06T23:55:09.743Z,97275.59
2019-04-06T23:57:36.057Z,97277.30
